createdAt,value
2017-09-14T00:00:16.269Z,65.48
2017-09-14T00:05:19.005Z,65.34
2017-09-14T00:10:20.933Z,65.97
2017-09-14T00:15:22.954Z,65.37
2017-09-14T00:20:24.911Z,65.51
2017-09-14T00:25:27.704Z,65.52
2017-09-14T00:30:29.684Z,66.27
2017-09-14T00:35:31.688Z,66.80
2017-09-14T00:40:34.586Z,67.10
2017-09-14T00:45:36.586Z,66.97
2017-09-14T00:50:38.654Z,67.37
2017-09-14T00:55:40.605Z,68.09
2017-09-14T01:00:42.598Z,68.31
2017-09-14T01:05:45.391Z,68.44
2017-09-14T01:10:47.510Z,68.46
2017-09-14T01:15:49.640Z,68.52
2017-09-14T01:20:51.933Z,68.79
2017-09-14T01:25:54.210Z,68.91
2017-09-14T01:30:56.296Z,68.71
2017-09-14T01:35:58.413Z,68.71
2017-09-14T01:41:01.302Z,68.17
2017-09-14T01:46:03.321Z,68.41
2017-09-14T01:51:05.305Z,68.47
2017-09-14T01:56:07.336Z,68.26
2017-09-14T02:01:09.343Z,68.09
2017-09-14T02:06:12.185Z,68.14
2017-09-14T02:11:14.253Z,68.85
2017-09-14T02:16:16.274Z,69.19
2017-09-14T02:21:24.255Z,69.42
2017-09-14T02:26:26.302Z,69.66
2017-09-14T02:31:28.331Z,69.79
2017-09-14T02:36:30.387Z,69.57
2017-09-14T02:41:32.353Z,69.67
2017-09-14T02:46:34.339Z,70.00
2017-09-14T02:51:37.047Z,70.08
2017-09-14T02:56:39.031Z,70.08
2017-09-14T03:06:50.132Z,70.24
2017-09-14T03:11:52.905Z,70.21
2017-09-14T03:16:54.883Z,70.45
2017-09-14T03:21:56.862Z,70.57
2017-09-14T03:26:58.862Z,70.65
2017-09-14T03:32:01.315Z,70.92
2017-09-14T03:37:03.400Z,71.43
2017-09-14T03:42:05.387Z,71.42
2017-09-14T03:47:07.421Z,72.04
2017-09-14T03:52:10.183Z,71.98
2017-09-14T03:57:12.800Z,71.86
2017-09-14T04:02:15.028Z,72.46
2017-09-14T04:07:19.467Z,72.32
2017-09-14T04:12:21.696Z,72.47
2017-09-14T04:17:25.343Z,72.56
2017-09-14T04:22:27.604Z,72.58
2017-09-14T04:27:29.662Z,72.67
2017-09-14T04:32:31.649Z,72.85
2017-09-14T04:37:33.714Z,72.59
2017-09-14T04:42:35.707Z,72.22
2017-09-14T04:47:38.596Z,72.44
2017-09-14T04:52:40.601Z,72.33
2017-09-14T04:57:42.585Z,72.41
2017-09-14T05:02:44.663Z,72.41
2017-09-14T05:07:46.629Z,71.88
2017-09-14T05:12:48.630Z,72.00
2017-09-14T05:17:50.644Z,71.63
2017-09-14T05:22:52.712Z,71.32
2017-09-14T05:28:00.402Z,71.38
2017-09-14T05:33:05.925Z,71.05
2017-09-14T05:38:09.110Z,71.13
2017-09-14T05:43:11.189Z,70.60
2017-09-14T05:48:13.203Z,70.53
2017-09-14T05:53:16.483Z,70.21
2017-09-14T05:58:18.464Z,69.63
2017-09-14T06:03:20.546Z,69.20
2017-09-14T06:13:32.232Z,69.29
2017-09-14T06:18:34.169Z,69.20
2017-09-14T06:23:36.148Z,68.66
2017-09-14T06:28:38.862Z,67.90
2017-09-14T06:33:40.855Z,67.07
2017-09-14T06:38:42.964Z,65.86
2017-09-14T06:43:45.008Z,64.83
2017-09-14T06:48:47.033Z,64.16
2017-09-14T06:53:49.059Z,64.22
2017-09-14T06:58:51.060Z,64.66
2017-09-14T07:03:53.028Z,64.74
2017-09-14T07:08:55.028Z,65.36
2017-09-14T07:13:57.693Z,64.47
2017-09-14T07:18:59.651Z,64.70
2017-09-14T07:24:01.711Z,64.36
2017-09-14T07:29:03.655Z,64.54
2017-09-14T07:34:05.604Z,65.53
2017-09-14T07:39:07.593Z,65.16
2017-09-14T07:44:09.564Z,63.15
2017-09-14T07:49:11.531Z,62.73
2017-09-14T07:54:13.616Z,62.34
2017-09-14T07:59:15.604Z,63.00
2017-09-14T08:04:18.496Z,62.04
2017-09-14T08:09:20.487Z,60.74
2017-09-14T08:14:22.485Z,60.29
2017-09-14T08:19:24.561Z,60.65
2017-09-14T08:24:26.638Z,59.26
2017-09-14T08:29:29.389Z,58.32
2017-09-14T08:34:31.496Z,58.24
2017-09-14T08:39:34.230Z,58.50
2017-09-14T08:44:36.275Z,58.76
2017-09-14T08:49:38.308Z,58.97
2017-09-14T08:54:40.346Z,58.58
2017-09-14T08:59:42.388Z,57.42
2017-09-14T09:04:44.475Z,57.66
2017-09-14T09:09:46.467Z,57.95
2017-09-14T09:14:48.522Z,56.81
2017-09-14T09:19:50.510Z,57.71
2017-09-14T09:24:52.456Z,57.65
2017-09-14T09:29:54.464Z,54.86
2017-09-14T09:34:56.475Z,53.94
2017-09-14T09:39:58.436Z,53.16
2017-09-14T09:45:00.416Z,53.72
2017-09-14T09:50:02.429Z,54.14
2017-09-14T09:55:04.436Z,54.50
2017-09-14T10:00:06.610Z,55.67
2017-09-14T10:05:12.950Z,55.78
2017-09-14T10:10:20.139Z,56.34
2017-09-14T10:15:22.282Z,55.46
2017-09-14T10:20:24.295Z,52.90
2017-09-14T10:25:27.091Z,52.73
2017-09-14T10:30:29.144Z,51.47
2017-09-14T10:35:31.197Z,52.42
2017-09-14T10:40:35.159Z,51.57
2017-09-14T10:45:37.211Z,50.93
2017-09-14T10:50:39.268Z,51.26
2017-09-14T10:55:41.337Z,51.47
2017-09-14T11:00:43.281Z,51.38
2017-09-14T11:05:45.326Z,51.21
2017-09-14T11:10:47.367Z,51.65
2017-09-14T11:15:49.426Z,51.75
2017-09-14T11:20:52.199Z,53.85
2017-09-14T11:25:54.236Z,53.80
2017-09-14T11:30:56.742Z,52.56
2017-09-14T11:35:58.722Z,52.13
2017-09-14T11:41:01.478Z,53.07
2017-09-14T11:46:04.539Z,53.73
2017-09-14T11:51:06.695Z,54.17
2017-09-14T11:56:09.418Z,53.98
2017-09-14T12:01:11.422Z,53.68
2017-09-14T12:06:13.440Z,52.53
2017-09-14T12:11:15.491Z,52.23
2017-09-14T12:16:17.520Z,52.33
2017-09-14T12:21:19.526Z,53.80
2017-09-14T12:26:21.526Z,52.16
2017-09-14T12:31:23.510Z,50.01
2017-09-14T12:36:25.488Z,49.97
2017-09-14T12:41:27.581Z,50.53
2017-09-14T12:46:29.547Z,48.85
2017-09-14T12:51:31.503Z,48.03
2017-09-14T12:56:34.257Z,48.04
2017-09-14T13:01:36.280Z,49.21
2017-09-14T13:06:38.304Z,48.75
2017-09-14T13:11:40.596Z,49.20
2017-09-14T13:16:42.656Z,50.19
2017-09-14T13:21:45.469Z,49.46
2017-09-14T13:26:47.510Z,47.97
2017-09-14T13:31:49.497Z,48.21
2017-09-14T13:36:51.510Z,49.46
2017-09-14T13:41:53.543Z,51.61
2017-09-14T13:46:56.320Z,51.28
2017-09-14T13:51:58.382Z,57.43
2017-09-14T13:57:01.388Z,61.77
2017-09-14T14:02:03.438Z,62.74
2017-09-14T14:07:05.503Z,62.98
2017-09-14T14:12:07.527Z,61.52
2017-09-14T14:17:09.580Z,61.34
2017-09-14T14:22:11.613Z,61.14
2017-09-14T14:27:13.597Z,60.09
2017-09-14T14:32:16.395Z,59.38
2017-09-14T14:37:18.405Z,59.29
2017-09-14T14:42:20.440Z,58.93
2017-09-14T14:47:22.493Z,58.25
2017-09-14T14:52:24.500Z,58.19
2017-09-14T14:57:26.521Z,56.54
2017-09-14T15:02:28.537Z,57.90
2017-09-14T15:07:30.545Z,64.31
2017-09-14T15:12:32.516Z,67.19
2017-09-14T15:17:34.635Z,67.14
2017-09-14T15:22:37.404Z,67.72
2017-09-14T15:27:39.436Z,66.26
2017-09-14T15:32:47.353Z,65.93
2017-09-14T15:37:53.106Z,66.33
2017-09-14T15:43:01.256Z,66.90
2017-09-14T15:48:14.426Z,66.30
2017-09-14T15:53:16.552Z,65.80
2017-09-14T15:58:19.018Z,65.86
2017-09-14T16:03:21.084Z,65.56
2017-09-14T16:08:27.831Z,64.94
2017-09-14T16:13:30.229Z,64.45
2017-09-14T16:18:32.227Z,64.72
2017-09-14T16:23:34.168Z,64.57
2017-09-14T16:28:36.990Z,64.51
2017-09-14T16:33:39.016Z,64.40
2017-09-14T16:38:41.114Z,64.70
2017-09-14T16:43:43.080Z,65.49
2017-09-14T16:48:45.034Z,65.91
2017-09-14T16:53:47.120Z,66.48
2017-09-14T16:58:49.156Z,66.44
2017-09-14T17:03:51.140Z,66.84
2017-09-14T17:08:53.241Z,67.50
2017-09-14T17:13:55.374Z,67.57
2017-09-14T17:18:57.348Z,68.44
2017-09-14T17:23:59.690Z,69.57
2017-09-14T17:29:01.675Z,70.52
2017-09-14T17:34:04.382Z,70.52
2017-09-14T17:39:06.372Z,70.63
2017-09-14T17:44:08.494Z,70.06
2017-09-14T17:49:11.130Z,70.18
2017-09-14T17:54:14.051Z,70.44
2017-09-14T17:59:16.037Z,70.52
2017-09-14T18:04:18.753Z,71.23
2017-09-14T18:09:20.763Z,71.32
2017-09-14T18:14:28.131Z,71.66
2017-09-14T18:19:30.881Z,72.39
2017-09-14T18:24:32.844Z,72.44
2017-09-14T18:29:35.525Z,72.81
2017-09-14T18:34:37.645Z,72.73
2017-09-14T18:39:39.878Z,72.84
2017-09-14T18:44:41.847Z,73.04
2017-09-14T18:49:47.290Z,73.33
2017-09-14T18:54:49.475Z,73.51
2017-09-14T18:59:51.501Z,73.26
2017-09-14T19:04:53.622Z,73.17
2017-09-14T19:09:56.659Z,73.47
2017-09-14T19:15:01.215Z,73.13
2017-09-14T19:20:07.103Z,73.22
2017-09-14T19:25:09.991Z,73.44
2017-09-14T19:30:12.015Z,73.50
2017-09-14T19:35:17.068Z,73.26
2017-09-14T19:40:22.275Z,73.30
2017-09-14T19:45:24.872Z,73.81
2017-09-14T19:50:27.052Z,73.51
2017-09-14T19:55:29.748Z,73.40
2017-09-14T20:00:31.725Z,74.29
2017-09-14T20:05:34.386Z,74.27
2017-09-14T20:10:36.350Z,73.99
2017-09-14T20:15:43.760Z,73.33
2017-09-14T20:20:46.255Z,73.05
2017-09-14T20:25:48.642Z,72.41
2017-09-14T20:30:51.108Z,72.09
2017-09-14T20:35:54.228Z,72.02
2017-09-14T20:40:56.191Z,71.96
2017-09-14T20:45:58.234Z,72.09
2017-09-14T20:51:00.196Z,72.09
2017-09-14T20:56:02.172Z,71.90
2017-09-14T21:01:05.626Z,73.63
2017-09-14T21:06:07.614Z,75.14
2017-09-14T21:11:09.569Z,75.37
2017-09-14T21:16:12.256Z,76.41
2017-09-14T21:21:14.262Z,76.41
2017-09-14T21:26:16.200Z,76.71
2017-09-14T21:31:18.191Z,76.79
2017-09-14T21:36:20.291Z,76.98
2017-09-14T21:41:22.993Z,76.84
2017-09-14T21:46:25.642Z,76.59
2017-09-14T21:51:27.633Z,76.50
2017-09-14T21:56:29.593Z,76.66
2017-09-14T22:01:31.592Z,76.32
2017-09-14T22:06:34.298Z,76.13
2017-09-14T22:11:36.250Z,75.71
2017-09-14T22:16:38.280Z,75.59
2017-09-14T22:21:40.269Z,75.39
2017-09-14T22:26:42.227Z,75.11
2017-09-14T22:31:44.219Z,75.06
2017-09-14T22:36:46.268Z,74.90
2017-09-14T22:41:48.219Z,74.99
2017-09-14T22:46:50.409Z,74.67
2017-09-14T22:51:52.433Z,74.65
2017-09-14T22:56:54.461Z,74.40
2017-09-14T23:01:57.059Z,74.36
2017-09-14T23:06:59.753Z,74.63
2017-09-14T23:12:02.382Z,75.16
2017-09-14T23:17:04.361Z,74.69
2017-09-14T23:22:06.335Z,75.05
2017-09-14T23:27:09.458Z,74.97
2017-09-14T23:32:11.565Z,75.33
2017-09-14T23:37:14.379Z,75.60
2017-09-14T23:42:16.456Z,75.59
2017-09-14T23:47:18.438Z,75.37
2017-09-14T23:52:20.408Z,75.76
2017-09-14T23:57:22.367Z,75.93
